sensor_id;sensor_type;location;lat;lon;timestamp;P1;durP1;ratioP1;P2;durP2;ratioP2
72926;SDS011;61071;51.618;19.388;2023-04-03T00:00:29;6.80;;;2.67;;
72926;SDS011;61071;51.618;19.388;2023-04-03T00:02:55;5.10;;;2.58;;
72926;SDS011;61071;51.618;19.388;2023-04-03T00:05:21;6.43;;;2.80;;
72926;SDS011;61071;51.618;19.388;2023-04-03T00:07:46;5.05;;;2.40;;
72926;SDS011;61071;51.618;19.388;2023-04-03T00:10:12;5.00;;;2.40;;
72926;SDS011;61071;51.618;19.388;2023-04-03T00:12:38;6.47;;;2.25;;
72926;SDS011;61071;51.618;19.388;2023-04-03T00:15:04;7.05;;;2.30;;
72926;SDS011;61071;51.618;19.388;2023-04-03T00:17:30;4.45;;;2.15;;
72926;SDS011;61071;51.618;19.388;2023-04-03T00:19:56;5.40;;;2.17;;
72926;SDS011;61071;51.618;19.388;2023-04-03T00:22:22;4.25;;;2.13;;
72926;SDS011;61071;51.618;19.388;2023-04-03T00:24:48;4.10;;;2.20;;
72926;SDS011;61071;51.618;19.388;2023-04-03T00:27:14;5.32;;;2.33;;
72926;SDS011;61071;51.618;19.388;2023-04-03T00:29:40;3.95;;;1.80;;
72926;SDS011;61071;51.618;19.388;2023-04-03T00:32:06;4.40;;;2.33;;
72926;SDS011;61071;51.618;19.388;2023-04-03T00:34:32;6.07;;;2.83;;
72926;SDS011;61071;51.618;19.388;2023-04-03T00:36:57;5.38;;;2.20;;
72926;SDS011;61071;51.618;19.388;2023-04-03T00:39:23;3.65;;;1.92;;
72926;SDS011;61071;51.618;19.388;2023-04-03T00:41:48;3.75;;;2.00;;
72926;SDS011;61071;51.618;19.388;2023-04-03T00:44:21;5.88;;;2.00;;
72926;SDS011;61071;51.618;19.388;2023-04-03T00:47:07;5.75;;;2.20;;
72926;SDS011;61071;51.618;19.388;2023-04-03T00:49:37;3.33;;;2.17;;
72926;SDS011;61071;51.618;19.388;2023-04-03T00:52:05;4.07;;;2.22;;
72926;SDS011;61071;51.618;19.388;2023-04-03T00:54:37;5.78;;;2.25;;
72926;SDS011;61071;51.618;19.388;2023-04-03T00:57:05;4.30;;;2.15;;
72926;SDS011;61071;51.618;19.388;2023-04-03T00:59:34;5.78;;;2.60;;
72926;SDS011;61071;51.618;19.388;2023-04-03T01:02:05;6.45;;;2.40;;
72926;SDS011;61071;51.618;19.388;2023-04-03T01:06:59;3.83;;;2.17;;
72926;SDS011;61071;51.618;19.388;2023-04-03T01:09:30;9.43;;;4.68;;
72926;SDS011;61071;51.618;19.388;2023-04-03T01:15:00;7.15;;;3.50;;
72926;SDS011;61071;51.618;19.388;2023-04-03T01:17:41;4.70;;;2.53;;
72926;SDS011;61071;51.618;19.388;2023-04-03T01:28:15;5.95;;;2.17;;
72926;SDS011;61071;51.618;19.388;2023-04-03T01:30:47;4.43;;;2.20;;
72926;SDS011;61071;51.618;19.388;2023-04-03T01:33:16;6.28;;;2.45;;
72926;SDS011;61071;51.618;19.388;2023-04-03T01:35:42;7.60;;;2.20;;
72926;SDS011;61071;51.618;19.388;2023-04-03T01:38:07;5.88;;;2.30;;
72926;SDS011;61071;51.618;19.388;2023-04-03T01:40:33;7.05;;;2.28;;
72926;SDS011;61071;51.618;19.388;2023-04-03T01:42:59;4.22;;;2.00;;
72926;SDS011;61071;51.618;19.388;2023-04-03T01:45:24;5.13;;;2.10;;
72926;SDS011;61071;51.618;19.388;2023-04-03T01:47:50;5.53;;;2.22;;
72926;SDS011;61071;51.618;19.388;2023-04-03T01:50:16;4.43;;;1.80;;
72926;SDS011;61071;51.618;19.388;2023-04-03T01:52:41;5.47;;;2.40;;
72926;SDS011;61071;51.618;19.388;2023-04-03T01:55:07;5.38;;;2.20;;
72926;SDS011;61071;51.618;19.388;2023-04-03T01:57:33;7.78;;;2.45;;
72926;SDS011;61071;51.618;19.388;2023-04-03T01:59:59;4.47;;;2.13;;
72926;SDS011;61071;51.618;19.388;2023-04-03T02:02:24;7.78;;;2.30;;
72926;SDS011;61071;51.618;19.388;2023-04-03T02:04:50;6.55;;;2.65;;
72926;SDS011;61071;51.618;19.388;2023-04-03T02:07:16;5.88;;;2.33;;
72926;SDS011;61071;51.618;19.388;2023-04-03T02:09:41;4.75;;;2.38;;
72926;SDS011;61071;51.618;19.388;2023-04-03T02:12:07;4.47;;;2.00;;
72926;SDS011;61071;51.618;19.388;2023-04-03T02:14:33;4.43;;;2.20;;
72926;SDS011;61071;51.618;19.388;2023-04-03T02:16:59;5.32;;;2.17;;
72926;SDS011;61071;51.618;19.388;2023-04-03T02:19:30;4.03;;;1.90;;
72926;SDS011;61071;51.618;19.388;2023-04-03T02:21:56;5.32;;;2.08;;
72926;SDS011;61071;51.618;19.388;2023-04-03T02:24:22;4.13;;;1.77;;
72926;SDS011;61071;51.618;19.388;2023-04-03T02:26:47;4.47;;;2.15;;
72926;SDS011;61071;51.618;19.388;2023-04-03T02:29:13;4.55;;;2.10;;
72926;SDS011;61071;51.618;19.388;2023-04-03T02:31:39;5.90;;;2.42;;
72926;SDS011;61071;51.618;19.388;2023-04-03T02:34:05;6.85;;;2.63;;
72926;SDS011;61071;51.618;19.388;2023-04-03T02:36:31;5.15;;;2.63;;
72926;SDS011;61071;51.618;19.388;2023-04-03T02:38:56;6.03;;;2.30;;
72926;SDS011;61071;51.618;19.388;2023-04-03T02:41:22;5.43;;;2.58;;
72926;SDS011;61071;51.618;19.388;2023-04-03T02:43:50;4.57;;;2.08;;
72926;SDS011;61071;51.618;19.388;2023-04-03T02:46:16;6.20;;;2.38;;
72926;SDS011;61071;51.618;19.388;2023-04-03T02:48:41;5.50;;;2.33;;
72926;SDS011;61071;51.618;19.388;2023-04-03T02:51:07;6.05;;;2.42;;
72926;SDS011;61071;51.618;19.388;2023-04-03T02:53:32;8.48;;;2.40;;
72926;SDS011;61071;51.618;19.388;2023-04-03T02:55:58;5.93;;;2.00;;
72926;SDS011;61071;51.618;19.388;2023-04-03T02:58:24;4.47;;;2.35;;
72926;SDS011;61071;51.618;19.388;2023-04-03T03:00:49;5.25;;;2.58;;
72926;SDS011;61071;51.618;19.388;2023-04-03T03:03:15;6.03;;;2.53;;
72926;SDS011;61071;51.618;19.388;2023-04-03T03:05:41;3.88;;;1.85;;
72926;SDS011;61071;51.618;19.388;2023-04-03T03:08:06;7.45;;;2.40;;
72926;SDS011;61071;51.618;19.388;2023-04-03T03:10:32;3.95;;;2.35;;
72926;SDS011;61071;51.618;19.388;2023-04-03T03:12:57;7.32;;;2.50;;
72926;SDS011;61071;51.618;19.388;2023-04-03T03:15:23;6.50;;;2.75;;
72926;SDS011;61071;51.618;19.388;2023-04-03T03:17:49;5.65;;;2.13;;
72926;SDS011;61071;51.618;19.388;2023-04-03T03:20:15;3.80;;;2.15;;
72926;SDS011;61071;51.618;19.388;2023-04-03T03:22:40;7.57;;;2.58;;
72926;SDS011;61071;51.618;19.388;2023-04-03T03:25:06;4.47;;;1.95;;
72926;SDS011;61071;51.618;19.388;2023-04-03T03:27:32;3.42;;;1.85;;
72926;SDS011;61071;51.618;19.388;2023-04-03T03:29:58;6.68;;;2.65;;
72926;SDS011;61071;51.618;19.388;2023-04-03T03:32:24;6.20;;;2.53;;
72926;SDS011;61071;51.618;19.388;2023-04-03T03:34:49;5.13;;;2.67;;
72926;SDS011;61071;51.618;19.388;2023-04-03T03:37:16;5.78;;;2.90;;
72926;SDS011;61071;51.618;19.388;2023-04-03T03:39:41;4.45;;;2.50;;
72926;SDS011;61071;51.618;19.388;2023-04-03T03:42:07;7.47;;;2.70;;
72926;SDS011;61071;51.618;19.388;2023-04-03T03:44:33;6.68;;;2.85;;
72926;SDS011;61071;51.618;19.388;2023-04-03T03:46:58;4.70;;;2.25;;
72926;SDS011;61071;51.618;19.388;2023-04-03T03:49:24;7.22;;;2.30;;
72926;SDS011;61071;51.618;19.388;2023-04-03T03:51:50;6.57;;;2.40;;
72926;SDS011;61071;51.618;19.388;2023-04-03T03:54:16;4.60;;;2.08;;
72926;SDS011;61071;51.618;19.388;2023-04-03T03:56:42;8.27;;;2.55;;
72926;SDS011;61071;51.618;19.388;2023-04-03T03:59:08;5.65;;;2.60;;
72926;SDS011;61071;51.618;19.388;2023-04-03T04:01:33;4.60;;;2.45;;
72926;SDS011;61071;51.618;19.388;2023-04-03T04:03:59;6.20;;;2.20;;
72926;SDS011;61071;51.618;19.388;2023-04-03T04:06:24;5.85;;;2.08;;
72926;SDS011;61071;51.618;19.388;2023-04-03T04:08:51;2.55;;;1.95;;
72926;SDS011;61071;51.618;19.388;2023-04-03T04:11:16;4.63;;;2.25;;
72926;SDS011;61071;51.618;19.388;2023-04-03T04:13:42;5.95;;;2.35;;
72926;SDS011;61071;51.618;19.388;2023-04-03T04:16:08;5.97;;;2.10;;
72926;SDS011;61071;51.618;19.388;2023-04-03T04:18:34;6.47;;;2.22;;
72926;SDS011;61071;51.618;19.388;2023-04-03T04:21:00;4.32;;;2.20;;
72926;SDS011;61071;51.618;19.388;2023-04-03T04:23:26;8.45;;;2.80;;
72926;SDS011;61071;51.618;19.388;2023-04-03T04:25:52;3.80;;;1.95;;
72926;SDS011;61071;51.618;19.388;2023-04-03T04:28:17;3.72;;;2.08;;
72926;SDS011;61071;51.618;19.388;2023-04-03T04:30:43;7.30;;;2.70;;
72926;SDS011;61071;51.618;19.388;2023-04-03T04:33:09;4.85;;;2.63;;
72926;SDS011;61071;51.618;19.388;2023-04-03T04:35:35;5.00;;;2.20;;
72926;SDS011;61071;51.618;19.388;2023-04-03T04:38:01;6.50;;;2.83;;
72926;SDS011;61071;51.618;19.388;2023-04-03T04:40:27;5.03;;;1.98;;
72926;SDS011;61071;51.618;19.388;2023-04-03T04:42:53;5.78;;;2.58;;
72926;SDS011;61071;51.618;19.388;2023-04-03T04:45:19;7.45;;;1.85;;
72926;SDS011;61071;51.618;19.388;2023-04-03T04:47:45;6.70;;;2.45;;
72926;SDS011;61071;51.618;19.388;2023-04-03T04:50:11;4.55;;;2.30;;
72926;SDS011;61071;51.618;19.388;2023-04-03T04:52:37;5.93;;;3.65;;
72926;SDS011;61071;51.618;19.388;2023-04-03T04:55:03;4.65;;;2.42;;
72926;SDS011;61071;51.618;19.388;2023-04-03T04:57:30;5.57;;;2.13;;
72926;SDS011;61071;51.618;19.388;2023-04-03T04:59:56;5.10;;;2.65;;
72926;SDS011;61071;51.618;19.388;2023-04-03T05:02:21;5.22;;;2.90;;
72926;SDS011;61071;51.618;19.388;2023-04-03T05:04:47;7.38;;;2.47;;
72926;SDS011;61071;51.618;19.388;2023-04-03T05:07:15;6.13;;;2.58;;
72926;SDS011;61071;51.618;19.388;2023-04-03T05:09:41;4.53;;;2.20;;
72926;SDS011;61071;51.618;19.388;2023-04-03T05:12:07;5.60;;;2.50;;
72926;SDS011;61071;51.618;19.388;2023-04-03T05:14:33;8.18;;;2.47;;
72926;SDS011;61071;51.618;19.388;2023-04-03T05:16:59;5.10;;;2.53;;
72926;SDS011;61071;51.618;19.388;2023-04-03T05:19:24;8.43;;;2.83;;
72926;SDS011;61071;51.618;19.388;2023-04-03T05:21:50;5.32;;;2.65;;
72926;SDS011;61071;51.618;19.388;2023-04-03T05:24:16;6.70;;;2.60;;
72926;SDS011;61071;51.618;19.388;2023-04-03T05:26:42;5.18;;;3.03;;
72926;SDS011;61071;51.618;19.388;2023-04-03T05:29:09;3.88;;;2.88;;
72926;SDS011;61071;51.618;19.388;2023-04-03T05:31:35;5.20;;;2.47;;
72926;SDS011;61071;51.618;19.388;2023-04-03T05:34:01;6.75;;;2.65;;
72926;SDS011;61071;51.618;19.388;2023-04-03T05:36:27;3.83;;;2.28;;
72926;SDS011;61071;51.618;19.388;2023-04-03T05:38:53;6.50;;;3.13;;
72926;SDS011;61071;51.618;19.388;2023-04-03T05:41:21;6.25;;;2.75;;
72926;SDS011;61071;51.618;19.388;2023-04-03T05:43:47;3.30;;;2.28;;
72926;SDS011;61071;51.618;19.388;2023-04-03T05:46:13;11.50;;;2.47;;
72926;SDS011;61071;51.618;19.388;2023-04-03T05:48:42;3.67;;;2.30;;
72926;SDS011;61071;51.618;19.388;2023-04-03T05:51:13;3.72;;;2.25;;
72926;SDS011;61071;51.618;19.388;2023-04-03T05:53:42;7.88;;;2.60;;
72926;SDS011;61071;51.618;19.388;2023-04-03T05:56:10;5.60;;;3.28;;
72926;SDS011;61071;51.618;19.388;2023-04-03T05:58:36;5.38;;;2.40;;
72926;SDS011;61071;51.618;19.388;2023-04-03T06:01:01;5.10;;;2.53;;
72926;SDS011;61071;51.618;19.388;2023-04-03T06:03:27;5.22;;;2.65;;
72926;SDS011;61071;51.618;19.388;2023-04-03T06:05:53;5.90;;;2.40;;
72926;SDS011;61071;51.618;19.388;2023-04-03T06:08:19;6.93;;;2.95;;
72926;SDS011;61071;51.618;19.388;2023-04-03T06:10:44;4.07;;;2.38;;
72926;SDS011;61071;51.618;19.388;2023-04-03T06:13:10;4.60;;;2.50;;
72926;SDS011;61071;51.618;19.388;2023-04-03T06:15:36;7.68;;;3.13;;
72926;SDS011;61071;51.618;19.388;2023-04-03T06:18:03;5.10;;;2.25;;
72926;SDS011;61071;51.618;19.388;2023-04-03T06:20:29;5.63;;;2.60;;
72926;SDS011;61071;51.618;19.388;2023-04-03T06:22:56;4.50;;;2.45;;
72926;SDS011;61071;51.618;19.388;2023-04-03T06:25:22;6.35;;;2.42;;
72926;SDS011;61071;51.618;19.388;2023-04-03T06:27:48;6.40;;;2.45;;
72926;SDS011;61071;51.618;19.388;2023-04-03T06:30:13;5.13;;;2.47;;
72926;SDS011;61071;51.618;19.388;2023-04-03T06:32:39;7.50;;;3.17;;
72926;SDS011;61071;51.618;19.388;2023-04-03T06:35:05;5.03;;;2.03;;
72926;SDS011;61071;51.618;19.388;2023-04-03T06:37:32;4.28;;;2.28;;
72926;SDS011;61071;51.618;19.388;2023-04-03T06:39:58;4.95;;;2.10;;
72926;SDS011;61071;51.618;19.388;2023-04-03T06:42:25;4.57;;;2.28;;
72926;SDS011;61071;51.618;19.388;2023-04-03T06:44:51;4.43;;;2.20;;
72926;SDS011;61071;51.618;19.388;2023-04-03T06:47:17;4.32;;;2.35;;
72926;SDS011;61071;51.618;19.388;2023-04-03T06:49:43;5.88;;;2.40;;
72926;SDS011;61071;51.618;19.388;2023-04-03T06:52:09;4.85;;;2.38;;
72926;SDS011;61071;51.618;19.388;2023-04-03T06:54:37;3.05;;;2.17;;
72926;SDS011;61071;51.618;19.388;2023-04-03T06:57:03;4.00;;;2.45;;
72926;SDS011;61071;51.618;19.388;2023-04-03T06:59:29;5.03;;;2.28;;
72926;SDS011;61071;51.618;19.388;2023-04-03T07:01:55;2.83;;;2.00;;
72926;SDS011;61071;51.618;19.388;2023-04-03T07:04:20;3.85;;;2.03;;
72926;SDS011;61071;51.618;19.388;2023-04-03T07:06:46;4.22;;;2.35;;
72926;SDS011;61071;51.618;19.388;2023-04-03T07:09:13;3.42;;;2.13;;
72926;SDS011;61071;51.618;19.388;2023-04-03T07:11:40;6.05;;;2.60;;
72926;SDS011;61071;51.618;19.388;2023-04-03T07:14:06;4.40;;;2.55;;
72926;SDS011;61071;51.618;19.388;2023-04-03T07:16:33;5.20;;;1.90;;
72926;SDS011;61071;51.618;19.388;2023-04-03T07:19:00;3.15;;;2.03;;
72926;SDS011;61071;51.618;19.388;2023-04-03T07:21:27;4.28;;;2.08;;
72926;SDS011;61071;51.618;19.388;2023-04-03T07:23:53;2.92;;;1.77;;
72926;SDS011;61071;51.618;19.388;2023-04-03T07:26:20;4.30;;;1.80;;
72926;SDS011;61071;51.618;19.388;2023-04-03T07:28:47;3.72;;;2.42;;
72926;SDS011;61071;51.618;19.388;2023-04-03T07:31:15;2.60;;;2.15;;
72926;SDS011;61071;51.618;19.388;2023-04-03T07:33:42;3.90;;;2.10;;
72926;SDS011;61071;51.618;19.388;2023-04-03T07:36:10;4.90;;;2.28;;
72926;SDS011;61071;51.618;19.388;2023-04-03T07:38:41;8.05;;;1.90;;
72926;SDS011;61071;51.618;19.388;2023-04-03T07:41:06;3.75;;;1.90;;
72926;SDS011;61071;51.618;19.388;2023-04-03T07:43:38;3.13;;;1.67;;
72926;SDS011;61071;51.618;19.388;2023-04-03T07:46:04;4.40;;;1.88;;
72926;SDS011;61071;51.618;19.388;2023-04-03T07:48:30;3.92;;;1.98;;
72926;SDS011;61071;51.618;19.388;2023-04-03T07:50:59;3.35;;;1.80;;
72926;SDS011;61071;51.618;19.388;2023-04-03T07:53:26;3.15;;;1.88;;
72926;SDS011;61071;51.618;19.388;2023-04-03T07:55:52;4.47;;;2.15;;
72926;SDS011;61071;51.618;19.388;2023-04-03T07:58:20;4.13;;;1.90;;
72926;SDS011;61071;51.618;19.388;2023-04-03T08:00:46;3.85;;;1.85;;
72926;SDS011;61071;51.618;19.388;2023-04-03T08:03:13;4.72;;;1.77;;
72926;SDS011;61071;51.618;19.388;2023-04-03T08:05:42;3.78;;;2.10;;
72926;SDS011;61071;51.618;19.388;2023-04-03T08:08:10;3.80;;;2.40;;
72926;SDS011;61071;51.618;19.388;2023-04-03T08:10:40;3.90;;;1.90;;
72926;SDS011;61071;51.618;19.388;2023-04-03T08:13:08;3.28;;;1.92;;
72926;SDS011;61071;51.618;19.388;2023-04-03T08:15:35;3.03;;;1.65;;
72926;SDS011;61071;51.618;19.388;2023-04-03T08:18:01;3.97;;;2.00;;
72926;SDS011;61071;51.618;19.388;2023-04-03T08:20:27;3.58;;;1.73;;
72926;SDS011;61071;51.618;19.388;2023-04-03T08:22:53;2.95;;;2.03;;
72926;SDS011;61071;51.618;19.388;2023-04-03T08:25:20;3.25;;;1.77;;
72926;SDS011;61071;51.618;19.388;2023-04-03T08:27:46;3.47;;;1.70;;
72926;SDS011;61071;51.618;19.388;2023-04-03T08:30:12;7.97;;;3.53;;
72926;SDS011;61071;51.618;19.388;2023-04-03T08:32:38;4.88;;;2.20;;
72926;SDS011;61071;51.618;19.388;2023-04-03T08:35:07;3.28;;;2.65;;
72926;SDS011;61071;51.618;19.388;2023-04-03T08:37:36;7.43;;;2.67;;
72926;SDS011;61071;51.618;19.388;2023-04-03T08:40:05;2.33;;;1.70;;
72926;SDS011;61071;51.618;19.388;2023-04-03T08:45:15;5.00;;;1.95;;
72926;SDS011;61071;51.618;19.388;2023-04-03T08:50:43;4.00;;;2.42;;
72926;SDS011;61071;51.618;19.388;2023-04-03T08:53:19;4.07;;;2.17;;
72926;SDS011;61071;51.618;19.388;2023-04-03T08:55:50;6.47;;;2.90;;
72926;SDS011;61071;51.618;19.388;2023-04-03T08:58:22;4.05;;;2.28;;
72926;SDS011;61071;51.618;19.388;2023-04-03T09:01:00;9.23;;;1.92;;
72926;SDS011;61071;51.618;19.388;2023-04-03T09:03:32;6.22;;;2.20;;
72926;SDS011;61071;51.618;19.388;2023-04-03T09:06:03;6.68;;;2.25;;
72926;SDS011;61071;51.618;19.388;2023-04-03T09:20:10;5.20;;;2.50;;
72926;SDS011;61071;51.618;19.388;2023-04-03T09:22:46;2.53;;;1.85;;
72926;SDS011;61071;51.618;19.388;2023-04-03T09:25:35;3.35;;;1.92;;
72926;SDS011;61071;51.618;19.388;2023-04-03T09:28:02;4.38;;;2.13;;
72926;SDS011;61071;51.618;19.388;2023-04-03T09:30:34;2.95;;;2.00;;
72926;SDS011;61071;51.618;19.388;2023-04-03T09:33:00;3.70;;;1.80;;
72926;SDS011;61071;51.618;19.388;2023-04-03T09:35:28;4.50;;;2.40;;
72926;SDS011;61071;51.618;19.388;2023-04-03T09:40:41;4.57;;;2.13;;
72926;SDS011;61071;51.618;19.388;2023-04-03T09:43:34;4.60;;;1.67;;
72926;SDS011;61071;51.618;19.388;2023-04-03T09:49:02;3.75;;;1.83;;
72926;SDS011;61071;51.618;19.388;2023-04-03T09:51:30;3.72;;;1.80;;
72926;SDS011;61071;51.618;19.388;2023-04-03T09:53:57;4.07;;;2.00;;
72926;SDS011;61071;51.618;19.388;2023-04-03T09:56:27;3.78;;;1.92;;
72926;SDS011;61071;51.618;19.388;2023-04-03T10:04:04;2.17;;;1.52;;
72926;SDS011;61071;51.618;19.388;2023-04-03T10:06:43;3.45;;;1.85;;
72926;SDS011;61071;51.618;19.388;2023-04-03T10:09:25;3.05;;;1.80;;
72926;SDS011;61071;51.618;19.388;2023-04-03T10:17:57;2.00;;;1.40;;
72926;SDS011;61071;51.618;19.388;2023-04-03T10:20:37;3.08;;;1.90;;
72926;SDS011;61071;51.618;19.388;2023-04-03T10:26:13;2.65;;;1.70;;
72926;SDS011;61071;51.618;19.388;2023-04-03T10:29:16;3.30;;;2.00;;
72926;SDS011;61071;51.618;19.388;2023-04-03T10:34:44;6.07;;;3.38;;
72926;SDS011;61071;51.618;19.388;2023-04-03T10:56:30;5.05;;;1.75;;
72926;SDS011;61071;51.618;19.388;2023-04-03T10:59:18;6.88;;;1.83;;
72926;SDS011;61071;51.618;19.388;2023-04-03T11:01:56;2.95;;;1.58;;
72926;SDS011;61071;51.618;19.388;2023-04-03T11:04:30;2.58;;;1.70;;
72926;SDS011;61071;51.618;19.388;2023-04-03T11:07:17;4.45;;;1.88;;
72926;SDS011;61071;51.618;19.388;2023-04-03T11:10:02;3.33;;;1.65;;
72926;SDS011;61071;51.618;19.388;2023-04-03T11:12:44;4.72;;;1.70;;
72926;SDS011;61071;51.618;19.388;2023-04-03T11:15:17;2.55;;;1.70;;
72926;SDS011;61071;51.618;19.388;2023-04-03T11:17:54;4.05;;;1.90;;
72926;SDS011;61071;51.618;19.388;2023-04-03T11:20:33;5.25;;;2.03;;
72926;SDS011;61071;51.618;19.388;2023-04-03T11:25:40;3.50;;;1.80;;
72926;SDS011;61071;51.618;19.388;2023-04-03T11:28:12;4.13;;;1.88;;
72926;SDS011;61071;51.618;19.388;2023-04-03T11:30:42;3.50;;;1.95;;
72926;SDS011;61071;51.618;19.388;2023-04-03T11:36:06;2.15;;;1.48;;
72926;SDS011;61071;51.618;19.388;2023-04-03T11:38:38;6.30;;;1.60;;
72926;SDS011;61071;51.618;19.388;2023-04-03T11:41:10;3.15;;;1.70;;
72926;SDS011;61071;51.618;19.388;2023-04-03T11:43:43;5.03;;;1.95;;
72926;SDS011;61071;51.618;19.388;2023-04-03T11:46:52;4.65;;;1.77;;
72926;SDS011;61071;51.618;19.388;2023-04-03T12:05:48;3.63;;;1.65;;
72926;SDS011;61071;51.618;19.388;2023-04-03T12:08:21;3.53;;;1.60;;
72926;SDS011;61071;51.618;19.388;2023-04-03T12:13:42;1.83;;;1.40;;
72926;SDS011;61071;51.618;19.388;2023-04-03T12:16:33;3.13;;;1.53;;
72926;SDS011;61071;51.618;19.388;2023-04-03T12:22:21;3.35;;;1.63;;
72926;SDS011;61071;51.618;19.388;2023-04-03T12:24:29;5.18;;;1.77;;
72926;SDS011;61071;51.618;19.388;2023-04-03T12:27:02;5.70;;;2.97;;
72926;SDS011;61071;51.618;19.388;2023-04-03T12:29:42;3.03;;;1.30;;
72926;SDS011;61071;51.618;19.388;2023-04-03T12:46:46;2.38;;;1.45;;
72926;SDS011;61071;51.618;19.388;2023-04-03T12:49:33;2.78;;;1.83;;
72926;SDS011;61071;51.618;19.388;2023-04-03T12:52:17;5.93;;;2.42;;
72926;SDS011;61071;51.618;19.388;2023-04-03T12:55:08;3.30;;;1.70;;
72926;SDS011;61071;51.618;19.388;2023-04-03T12:57:41;5.90;;;3.50;;
72926;SDS011;61071;51.618;19.388;2023-04-03T13:02:51;3.90;;;2.08;;
72926;SDS011;61071;51.618;19.388;2023-04-03T13:05:18;5.07;;;3.40;;
72926;SDS011;61071;51.618;19.388;2023-04-03T13:07:49;3.58;;;2.58;;
72926;SDS011;61071;51.618;19.388;2023-04-03T13:10:24;12.07;;;4.53;;
72926;SDS011;61071;51.618;19.388;2023-04-03T13:12:57;5.85;;;3.65;;
72926;SDS011;61071;51.618;19.388;2023-04-03T13:15:43;4.32;;;2.47;;
72926;SDS011;61071;51.618;19.388;2023-04-03T13:18:25;5.40;;;2.50;;
72926;SDS011;61071;51.618;19.388;2023-04-03T13:20:51;4.40;;;1.80;;
72926;SDS011;61071;51.618;19.388;2023-04-03T13:23:19;4.22;;;2.38;;
72926;SDS011;61071;51.618;19.388;2023-04-03T13:25:46;5.40;;;1.98;;
72926;SDS011;61071;51.618;19.388;2023-04-03T13:28:15;3.33;;;1.52;;
72926;SDS011;61071;51.618;19.388;2023-04-03T13:31:01;5.15;;;3.38;;
72926;SDS011;61071;51.618;19.388;2023-04-03T13:33:35;7.15;;;3.80;;
72926;SDS011;61071;51.618;19.388;2023-04-03T13:36:19;6.05;;;2.65;;
72926;SDS011;61071;51.618;19.388;2023-04-03T13:39:55;4.35;;;2.28;;
72926;SDS011;61071;51.618;19.388;2023-04-03T13:41:51;4.70;;;2.42;;
72926;SDS011;61071;51.618;19.388;2023-04-03T13:46:46;3.45;;;1.60;;
72926;SDS011;61071;51.618;19.388;2023-04-03T14:05:56;4.03;;;1.60;;
72926;SDS011;61071;51.618;19.388;2023-04-03T14:08:22;3.03;;;1.52;;
72926;SDS011;61071;51.618;19.388;2023-04-03T14:10:48;3.30;;;1.92;;
72926;SDS011;61071;51.618;19.388;2023-04-03T14:13:16;3.95;;;1.73;;
72926;SDS011;61071;51.618;19.388;2023-04-03T14:15:45;2.28;;;1.50;;
72926;SDS011;61071;51.618;19.388;2023-04-03T14:18:14;5.38;;;2.28;;
72926;SDS011;61071;51.618;19.388;2023-04-03T14:20:43;2.65;;;1.88;;
72926;SDS011;61071;51.618;19.388;2023-04-03T14:23:10;3.20;;;1.60;;
72926;SDS011;61071;51.618;19.388;2023-04-03T14:25:36;2.80;;;1.70;;
72926;SDS011;61071;51.618;19.388;2023-04-03T14:28:24;5.72;;;2.60;;
72926;SDS011;61071;51.618;19.388;2023-04-03T14:30:49;4.20;;;2.45;;
72926;SDS011;61071;51.618;19.388;2023-04-03T14:33:17;3.90;;;1.80;;
72926;SDS011;61071;51.618;19.388;2023-04-03T14:35:46;4.32;;;1.88;;
72926;SDS011;61071;51.618;19.388;2023-04-03T14:40:56;7.93;;;3.53;;
72926;SDS011;61071;51.618;19.388;2023-04-03T14:43:23;3.67;;;2.22;;
72926;SDS011;61071;51.618;19.388;2023-04-03T14:45:50;5.07;;;2.17;;
72926;SDS011;61071;51.618;19.388;2023-04-03T14:48:24;4.93;;;2.13;;
72926;SDS011;61071;51.618;19.388;2023-04-03T14:50:52;4.57;;;1.92;;
72926;SDS011;61071;51.618;19.388;2023-04-03T14:53:19;3.63;;;2.20;;
72926;SDS011;61071;51.618;19.388;2023-04-03T14:55:51;2.05;;;1.40;;
72926;SDS011;61071;51.618;19.388;2023-04-03T14:58:18;6.68;;;1.55;;
72926;SDS011;61071;51.618;19.388;2023-04-03T15:00:45;2.80;;;1.83;;
72926;SDS011;61071;51.618;19.388;2023-04-03T15:03:19;2.25;;;1.70;;
72926;SDS011;61071;51.618;19.388;2023-04-03T15:05:47;2.40;;;1.50;;
72926;SDS011;61071;51.618;19.388;2023-04-03T15:08:21;3.13;;;1.80;;
72926;SDS011;61071;51.618;19.388;2023-04-03T15:10:51;3.67;;;1.70;;
72926;SDS011;61071;51.618;19.388;2023-04-03T15:13:17;5.38;;;2.13;;
72926;SDS011;61071;51.618;19.388;2023-04-03T15:15:44;2.33;;;1.63;;
72926;SDS011;61071;51.618;19.388;2023-04-03T15:18:15;2.72;;;1.80;;
72926;SDS011;61071;51.618;19.388;2023-04-03T15:20:53;6.90;;;2.13;;
72926;SDS011;61071;51.618;19.388;2023-04-03T15:23:20;3.50;;;1.60;;
72926;SDS011;61071;51.618;19.388;2023-04-03T15:25:51;3.43;;;1.63;;
72926;SDS011;61071;51.618;19.388;2023-04-03T15:28:26;3.85;;;1.90;;
72926;SDS011;61071;51.618;19.388;2023-04-03T15:30:57;2.70;;;1.65;;
72926;SDS011;61071;51.618;19.388;2023-04-03T15:33:24;3.05;;;1.77;;
72926;SDS011;61071;51.618;19.388;2023-04-03T15:35:50;2.80;;;1.92;;
72926;SDS011;61071;51.618;19.388;2023-04-03T15:38:16;3.20;;;1.98;;
72926;SDS011;61071;51.618;19.388;2023-04-03T15:40:42;3.17;;;2.08;;
72926;SDS011;61071;51.618;19.388;2023-04-03T15:43:08;3.47;;;1.70;;
72926;SDS011;61071;51.618;19.388;2023-04-03T15:45:35;10.57;;;3.85;;
72926;SDS011;61071;51.618;19.388;2023-04-03T15:48:03;6.07;;;1.75;;
72926;SDS011;61071;51.618;19.388;2023-04-03T15:50:31;4.93;;;2.25;;
72926;SDS011;61071;51.618;19.388;2023-04-03T15:52:58;13.60;;;5.68;;
72926;SDS011;61071;51.618;19.388;2023-04-03T15:55:24;13.07;;;6.70;;
72926;SDS011;61071;51.618;19.388;2023-04-03T15:57:52;6.50;;;2.53;;
72926;SDS011;61071;51.618;19.388;2023-04-03T16:00:19;7.43;;;4.25;;
72926;SDS011;61071;51.618;19.388;2023-04-03T16:02:46;5.47;;;2.90;;
72926;SDS011;61071;51.618;19.388;2023-04-03T16:05:15;3.10;;;1.90;;
72926;SDS011;61071;51.618;19.388;2023-04-03T16:07:42;3.65;;;2.40;;
72926;SDS011;61071;51.618;19.388;2023-04-03T16:10:09;11.75;;;7.28;;
72926;SDS011;61071;51.618;19.388;2023-04-03T16:12:37;5.35;;;2.72;;
72926;SDS011;61071;51.618;19.388;2023-04-03T16:15:03;4.00;;;2.60;;
72926;SDS011;61071;51.618;19.388;2023-04-03T16:17:29;5.40;;;3.30;;
72926;SDS011;61071;51.618;19.388;2023-04-03T16:19:58;6.10;;;3.28;;
72926;SDS011;61071;51.618;19.388;2023-04-03T16:22:25;8.07;;;4.68;;
72926;SDS011;61071;51.618;19.388;2023-04-03T16:24:53;14.57;;;9.32;;
72926;SDS011;61071;51.618;19.388;2023-04-03T16:27:20;9.98;;;5.65;;
72926;SDS011;61071;51.618;19.388;2023-04-03T16:29:46;10.90;;;7.13;;
72926;SDS011;61071;51.618;19.388;2023-04-03T16:32:12;7.88;;;4.50;;
72926;SDS011;61071;51.618;19.388;2023-04-03T16:34:39;13.13;;;8.55;;
72926;SDS011;61071;51.618;19.388;2023-04-03T16:37:05;15.88;;;10.10;;
72926;SDS011;61071;51.618;19.388;2023-04-03T16:39:33;19.13;;;11.73;;
72926;SDS011;61071;51.618;19.388;2023-04-03T16:42:00;9.50;;;5.75;;
72926;SDS011;61071;51.618;19.388;2023-04-03T16:44:26;20.23;;;7.55;;
72926;SDS011;61071;51.618;19.388;2023-04-03T16:46:52;6.15;;;3.63;;
72926;SDS011;61071;51.618;19.388;2023-04-03T16:49:18;6.93;;;4.28;;
72926;SDS011;61071;51.618;19.388;2023-04-03T16:51:43;7.13;;;4.60;;
72926;SDS011;61071;51.618;19.388;2023-04-03T16:54:10;13.98;;;8.70;;
72926;SDS011;61071;51.618;19.388;2023-04-03T16:56:38;27.88;;;14.43;;
72926;SDS011;61071;51.618;19.388;2023-04-03T16:59:04;26.50;;;18.40;;
72926;SDS011;61071;51.618;19.388;2023-04-03T17:01:30;22.55;;;14.23;;